sensor_id;sensor_type;location;lat;lon;timestamp;temperature;humidity
53272;DHT22;39160;48.580;7.756;2024-01-30T00:04:31;7.50;99.90
53272;DHT22;39160;48.580;7.756;2024-01-30T00:09:21;7.50;99.90
53272;DHT22;39160;48.580;7.756;2024-01-30T00:14:12;7.40;99.90
53272;DHT22;39160;48.580;7.756;2024-01-30T00:19:03;7.40;99.90
53272;DHT22;39160;48.580;7.756;2024-01-30T00:23:54;7.40;99.90
53272;DHT22;39160;48.580;7.756;2024-01-30T00:28:44;7.50;99.90
53272;DHT22;39160;48.580;7.756;2024-01-30T00:33:35;7.40;99.90
53272;DHT22;39160;48.580;7.756;2024-01-30T00:38:25;7.40;99.90
53272;DHT22;39160;48.580;7.756;2024-01-30T00:43:16;7.40;99.90
53272;DHT22;39160;48.580;7.756;2024-01-30T00:48:07;7.30;99.90
53272;DHT22;39160;48.580;7.756;2024-01-30T00:52:57;7.30;99.90
53272;DHT22;39160;48.580;7.756;2024-01-30T00:57:48;7.30;99.90
53272;DHT22;39160;48.580;7.756;2024-01-30T01:02:39;7.20;99.90
53272;DHT22;39160;48.580;7.756;2024-01-30T01:07:30;7.20;99.90
53272;DHT22;39160;48.580;7.756;2024-01-30T01:12:21;7.20;99.90
53272;DHT22;39160;48.580;7.756;2024-01-30T01:17:12;7.20;99.90
53272;DHT22;39160;48.580;7.756;2024-01-30T01:22:02;7.20;99.90
53272;DHT22;39160;48.580;7.756;2024-01-30T01:26:53;7.20;99.90
53272;DHT22;39160;48.580;7.756;2024-01-30T01:31:44;7.20;99.90
53272;DHT22;39160;48.580;7.756;2024-01-30T01:36:34;7.20;99.90
53272;DHT22;39160;48.580;7.756;2024-01-30T01:41:32;7.10;99.90
53272;DHT22;39160;48.580;7.756;2024-01-30T01:46:26;7.10;99.90
53272;DHT22;39160;48.580;7.756;2024-01-30T01:51:16;7.10;99.90
53272;DHT22;39160;48.580;7.756;2024-01-30T01:56:07;7.10;99.90
53272;DHT22;39160;48.580;7.756;2024-01-30T02:00:59;7.10;99.90
53272;DHT22;39160;48.580;7.756;2024-01-30T02:05:51;7.10;99.90
53272;DHT22;39160;48.580;7.756;2024-01-30T02:10:42;7.20;99.90
53272;DHT22;39160;48.580;7.756;2024-01-30T02:15:32;7.10;99.90
53272;DHT22;39160;48.580;7.756;2024-01-30T02:20:25;7.10;99.90
53272;DHT22;39160;48.580;7.756;2024-01-30T02:25:15;7.10;99.90
53272;DHT22;39160;48.580;7.756;2024-01-30T02:30:06;7.10;99.90
53272;DHT22;39160;48.580;7.756;2024-01-30T02:34:57;7.10;99.90
53272;DHT22;39160;48.580;7.756;2024-01-30T02:39:48;7.10;99.90
53272;DHT22;39160;48.580;7.756;2024-01-30T02:44:38;7.20;99.90
53272;DHT22;39160;48.580;7.756;2024-01-30T02:49:29;7.20;99.90
53272;DHT22;39160;48.580;7.756;2024-01-30T02:54:20;7.20;99.90
53272;DHT22;39160;48.580;7.756;2024-01-30T02:59:10;7.20;99.90
53272;DHT22;39160;48.580;7.756;2024-01-30T03:04:01;7.20;99.90
53272;DHT22;39160;48.580;7.756;2024-01-30T03:08:52;7.20;99.90
53272;DHT22;39160;48.580;7.756;2024-01-30T03:13:42;7.10;99.90
53272;DHT22;39160;48.580;7.756;2024-01-30T03:18:33;7.20;99.90
53272;DHT22;39160;48.580;7.756;2024-01-30T03:23:24;7.20;99.90
53272;DHT22;39160;48.580;7.756;2024-01-30T03:28:14;7.10;99.90
53272;DHT22;39160;48.580;7.756;2024-01-30T03:33:05;7.10;99.90
53272;DHT22;39160;48.580;7.756;2024-01-30T03:37:55;7.00;99.90
53272;DHT22;39160;48.580;7.756;2024-01-30T03:42:46;7.00;99.90
53272;DHT22;39160;48.580;7.756;2024-01-30T03:47:37;6.90;99.90
53272;DHT22;39160;48.580;7.756;2024-01-30T03:52:27;6.90;99.90
53272;DHT22;39160;48.580;7.756;2024-01-30T03:57:18;6.90;99.90
53272;DHT22;39160;48.580;7.756;2024-01-30T04:02:10;6.80;99.90
53272;DHT22;39160;48.580;7.756;2024-01-30T04:07:02;6.90;99.90
53272;DHT22;39160;48.580;7.756;2024-01-30T04:11:52;6.80;99.90
53272;DHT22;39160;48.580;7.756;2024-01-30T04:16:43;6.80;99.90
53272;DHT22;39160;48.580;7.756;2024-01-30T04:21:33;6.80;99.90
53272;DHT22;39160;48.580;7.756;2024-01-30T04:26:24;6.70;99.90
53272;DHT22;39160;48.580;7.756;2024-01-30T04:31:15;6.70;99.90
53272;DHT22;39160;48.580;7.756;2024-01-30T04:36:08;6.70;99.90
53272;DHT22;39160;48.580;7.756;2024-01-30T04:41:02;6.70;99.90
53272;DHT22;39160;48.580;7.756;2024-01-30T04:45:52;6.60;99.90
53272;DHT22;39160;48.580;7.756;2024-01-30T04:50:43;6.60;99.90
53272;DHT22;39160;48.580;7.756;2024-01-30T04:55:35;6.70;99.90
53272;DHT22;39160;48.580;7.756;2024-01-30T05:00:26;6.60;99.90
53272;DHT22;39160;48.580;7.756;2024-01-30T05:05:16;6.60;99.90
53272;DHT22;39160;48.580;7.756;2024-01-30T05:10:07;6.60;99.90
53272;DHT22;39160;48.580;7.756;2024-01-30T05:14:58;6.70;99.90
53272;DHT22;39160;48.580;7.756;2024-01-30T05:19:49;6.70;99.90
53272;DHT22;39160;48.580;7.756;2024-01-30T05:24:39;6.60;99.90
53272;DHT22;39160;48.580;7.756;2024-01-30T05:29:30;6.60;99.90
53272;DHT22;39160;48.580;7.756;2024-01-30T05:34:21;6.50;99.90
53272;DHT22;39160;48.580;7.756;2024-01-30T05:39:11;6.60;99.90
53272;DHT22;39160;48.580;7.756;2024-01-30T05:44:02;6.60;99.90
53272;DHT22;39160;48.580;7.756;2024-01-30T05:48:53;6.60;99.90
53272;DHT22;39160;48.580;7.756;2024-01-30T05:53:43;6.60;99.90
53272;DHT22;39160;48.580;7.756;2024-01-30T05:58:34;6.60;99.90
53272;DHT22;39160;48.580;7.756;2024-01-30T06:03:25;6.60;99.90
53272;DHT22;39160;48.580;7.756;2024-01-30T06:08:15;6.60;99.90
53272;DHT22;39160;48.580;7.756;2024-01-30T06:13:06;6.60;99.90
53272;DHT22;39160;48.580;7.756;2024-01-30T06:17:57;6.60;99.90
53272;DHT22;39160;48.580;7.756;2024-01-30T06:22:47;6.60;99.90
53272;DHT22;39160;48.580;7.756;2024-01-30T06:27:38;6.50;99.90
53272;DHT22;39160;48.580;7.756;2024-01-30T06:32:29;6.50;99.90
53272;DHT22;39160;48.580;7.756;2024-01-30T06:37:24;6.50;99.90
53272;DHT22;39160;48.580;7.756;2024-01-30T06:42:15;6.50;99.90
53272;DHT22;39160;48.580;7.756;2024-01-30T06:47:06;6.50;99.90
53272;DHT22;39160;48.580;7.756;2024-01-30T06:51:57;6.50;99.90
53272;DHT22;39160;48.580;7.756;2024-01-30T06:56:47;6.50;99.90
53272;DHT22;39160;48.580;7.756;2024-01-30T07:01:38;6.40;99.90
53272;DHT22;39160;48.580;7.756;2024-01-30T07:06:28;6.40;99.90
53272;DHT22;39160;48.580;7.756;2024-01-30T07:11:20;6.40;99.90
53272;DHT22;39160;48.580;7.756;2024-01-30T07:16:12;6.40;99.90
53272;DHT22;39160;48.580;7.756;2024-01-30T07:21:03;6.50;99.90
53272;DHT22;39160;48.580;7.756;2024-01-30T07:25:54;6.50;99.90
53272;DHT22;39160;48.580;7.756;2024-01-30T07:30:45;6.50;99.90
53272;DHT22;39160;48.580;7.756;2024-01-30T07:35:36;6.60;99.90
53272;DHT22;39160;48.580;7.756;2024-01-30T07:40:27;6.60;99.90
53272;DHT22;39160;48.580;7.756;2024-01-30T07:45:17;6.50;99.90
53272;DHT22;39160;48.580;7.756;2024-01-30T07:50:12;6.50;99.90
53272;DHT22;39160;48.580;7.756;2024-01-30T07:55:03;6.50;99.90
53272;DHT22;39160;48.580;7.756;2024-01-30T07:59:54;6.50;99.90
53272;DHT22;39160;48.580;7.756;2024-01-30T08:04:45;6.60;99.90
53272;DHT22;39160;48.580;7.756;2024-01-30T08:09:39;6.60;99.90
53272;DHT22;39160;48.580;7.756;2024-01-30T08:14:29;6.60;99.90
53272;DHT22;39160;48.580;7.756;2024-01-30T08:19:20;6.60;99.90
53272;DHT22;39160;48.580;7.756;2024-01-30T08:24:10;6.70;99.90
53272;DHT22;39160;48.580;7.756;2024-01-30T08:29:01;6.70;99.90
53272;DHT22;39160;48.580;7.756;2024-01-30T08:33:52;6.80;99.90
53272;DHT22;39160;48.580;7.756;2024-01-30T08:38:46;6.80;99.90
53272;DHT22;39160;48.580;7.756;2024-01-30T08:43:37;6.80;99.90
53272;DHT22;39160;48.580;7.756;2024-01-30T08:48:28;6.80;99.90
53272;DHT22;39160;48.580;7.756;2024-01-30T08:53:18;6.90;99.90
53272;DHT22;39160;48.580;7.756;2024-01-30T08:58:09;6.90;99.90
53272;DHT22;39160;48.580;7.756;2024-01-30T09:03:00;6.80;99.90
53272;DHT22;39160;48.580;7.756;2024-01-30T09:07:50;6.90;99.90
53272;DHT22;39160;48.580;7.756;2024-01-30T09:12:41;6.90;99.90
53272;DHT22;39160;48.580;7.756;2024-01-30T09:17:32;6.80;99.90
53272;DHT22;39160;48.580;7.756;2024-01-30T09:22:23;6.80;99.90
53272;DHT22;39160;48.580;7.756;2024-01-30T09:27:14;6.90;99.90
53272;DHT22;39160;48.580;7.756;2024-01-30T09:32:05;7.00;99.90
53272;DHT22;39160;48.580;7.756;2024-01-30T09:36:56;7.00;99.90
53272;DHT22;39160;48.580;7.756;2024-01-30T09:47:00;7.10;99.90
53272;DHT22;39160;48.580;7.756;2024-01-30T09:51:54;7.10;99.90
53272;DHT22;39160;48.580;7.756;2024-01-30T09:56:48;7.20;99.90
53272;DHT22;39160;48.580;7.756;2024-01-30T10:01:39;7.20;99.90
53272;DHT22;39160;48.580;7.756;2024-01-30T10:06:30;7.20;99.90
53272;DHT22;39160;48.580;7.756;2024-01-30T10:11:21;7.20;99.90
53272;DHT22;39160;48.580;7.756;2024-01-30T10:16:14;7.30;99.90
53272;DHT22;39160;48.580;7.756;2024-01-30T10:21:08;7.40;99.90
53272;DHT22;39160;48.580;7.756;2024-01-30T10:25:59;7.50;99.90
53272;DHT22;39160;48.580;7.756;2024-01-30T10:30:58;7.60;99.90
53272;DHT22;39160;48.580;7.756;2024-01-30T10:35:50;7.70;99.90
53272;DHT22;39160;48.580;7.756;2024-01-30T10:40:43;7.70;99.90
53272;DHT22;39160;48.580;7.756;2024-01-30T10:45:35;7.80;99.90
53272;DHT22;39160;48.580;7.756;2024-01-30T10:50:29;7.80;99.90
53272;DHT22;39160;48.580;7.756;2024-01-30T10:55:21;7.90;99.90
53272;DHT22;39160;48.580;7.756;2024-01-30T11:00:14;8.00;99.90
53272;DHT22;39160;48.580;7.756;2024-01-30T11:05:06;8.00;99.90
53272;DHT22;39160;48.580;7.756;2024-01-30T11:10:04;8.00;99.90
53272;DHT22;39160;48.580;7.756;2024-01-30T11:15:05;8.20;99.90
53272;DHT22;39160;48.580;7.756;2024-01-30T11:19:59;8.20;99.90
53272;DHT22;39160;48.580;7.756;2024-01-30T11:24:49;8.30;99.90
53272;DHT22;39160;48.580;7.756;2024-01-30T11:29:40;8.40;99.90
53272;DHT22;39160;48.580;7.756;2024-01-30T11:34:32;8.40;99.90
53272;DHT22;39160;48.580;7.756;2024-01-30T11:39:25;8.50;99.90
53272;DHT22;39160;48.580;7.756;2024-01-30T11:44:20;8.50;99.90
53272;DHT22;39160;48.580;7.756;2024-01-30T11:49:14;8.60;99.90
53272;DHT22;39160;48.580;7.756;2024-01-30T11:54:04;8.60;99.90
53272;DHT22;39160;48.580;7.756;2024-01-30T11:58:55;8.80;99.90
53272;DHT22;39160;48.580;7.756;2024-01-30T12:03:50;8.90;99.90
53272;DHT22;39160;48.580;7.756;2024-01-30T12:08:41;8.90;99.90
53272;DHT22;39160;48.580;7.756;2024-01-30T12:13:32;9.00;99.90
53272;DHT22;39160;48.580;7.756;2024-01-30T12:18:22;9.10;99.90
53272;DHT22;39160;48.580;7.756;2024-01-30T12:23:13;9.20;99.90
53272;DHT22;39160;48.580;7.756;2024-01-30T12:28:04;9.20;99.90
53272;DHT22;39160;48.580;7.756;2024-01-30T12:32:55;9.30;99.90
53272;DHT22;39160;48.580;7.756;2024-01-30T12:37:46;9.30;99.90
53272;DHT22;39160;48.580;7.756;2024-01-30T12:42:37;9.30;99.90
53272;DHT22;39160;48.580;7.756;2024-01-30T12:47:28;9.40;99.90
53272;DHT22;39160;48.580;7.756;2024-01-30T12:52:20;9.40;99.90
53272;DHT22;39160;48.580;7.756;2024-01-30T12:57:11;9.40;99.90
53272;DHT22;39160;48.580;7.756;2024-01-30T13:02:02;9.50;99.90
53272;DHT22;39160;48.580;7.756;2024-01-30T13:06:53;9.40;99.90
53272;DHT22;39160;48.580;7.756;2024-01-30T13:11:44;9.40;99.90
53272;DHT22;39160;48.580;7.756;2024-01-30T13:16:35;9.50;99.90
53272;DHT22;39160;48.580;7.756;2024-01-30T13:21:25;9.50;99.90
53272;DHT22;39160;48.580;7.756;2024-01-30T13:26:16;9.70;99.90
53272;DHT22;39160;48.580;7.756;2024-01-30T13:31:07;9.60;99.90
53272;DHT22;39160;48.580;7.756;2024-01-30T13:35:57;9.60;99.90
53272;DHT22;39160;48.580;7.756;2024-01-30T13:40:49;9.70;99.90
53272;DHT22;39160;48.580;7.756;2024-01-30T13:45:39;9.70;99.90
53272;DHT22;39160;48.580;7.756;2024-01-30T13:50:32;9.70;99.90
53272;DHT22;39160;48.580;7.756;2024-01-30T13:55:23;9.70;99.90
53272;DHT22;39160;48.580;7.756;2024-01-30T14:00:14;9.60;99.90
53272;DHT22;39160;48.580;7.756;2024-01-30T14:05:06;9.70;99.90
53272;DHT22;39160;48.580;7.756;2024-01-30T14:09:57;9.70;99.90
53272;DHT22;39160;48.580;7.756;2024-01-30T14:14:48;9.70;99.90
53272;DHT22;39160;48.580;7.756;2024-01-30T14:19:38;9.80;99.90
53272;DHT22;39160;48.580;7.756;2024-01-30T14:24:29;9.70;99.90
53272;DHT22;39160;48.580;7.756;2024-01-30T14:29:19;9.70;99.90
53272;DHT22;39160;48.580;7.756;2024-01-30T14:34:10;9.70;99.90
53272;DHT22;39160;48.580;7.756;2024-01-30T14:39:02;9.70;99.90
53272;DHT22;39160;48.580;7.756;2024-01-30T14:43:56;9.80;99.90
53272;DHT22;39160;48.580;7.756;2024-01-30T14:48:47;9.90;99.90
53272;DHT22;39160;48.580;7.756;2024-01-30T14:53:38;9.90;99.90
53272;DHT22;39160;48.580;7.756;2024-01-30T14:58:28;9.80;99.90
53272;DHT22;39160;48.580;7.756;2024-01-30T15:03:19;9.80;99.90
53272;DHT22;39160;48.580;7.756;2024-01-30T15:08:10;9.80;99.90
53272;DHT22;39160;48.580;7.756;2024-01-30T15:13:01;9.90;99.90
53272;DHT22;39160;48.580;7.756;2024-01-30T15:17:51;9.90;99.90
53272;DHT22;39160;48.580;7.756;2024-01-30T15:22:42;9.90;99.90
53272;DHT22;39160;48.580;7.756;2024-01-30T15:27:33;10.00;99.90
53272;DHT22;39160;48.580;7.756;2024-01-30T15:32:26;10.00;99.90
53272;DHT22;39160;48.580;7.756;2024-01-30T15:37:17;10.00;99.90
53272;DHT22;39160;48.580;7.756;2024-01-30T15:42:08;10.00;99.90
53272;DHT22;39160;48.580;7.756;2024-01-30T15:46:59;10.00;99.90
53272;DHT22;39160;48.580;7.756;2024-01-30T15:51:49;10.00;99.90
53272;DHT22;39160;48.580;7.756;2024-01-30T15:56:40;10.00;99.90
53272;DHT22;39160;48.580;7.756;2024-01-30T16:01:31;10.00;99.90
53272;DHT22;39160;48.580;7.756;2024-01-30T16:06:22;9.90;99.90
53272;DHT22;39160;48.580;7.756;2024-01-30T16:11:16;9.90;99.90
53272;DHT22;39160;48.580;7.756;2024-01-30T16:16:08;9.90;99.90
53272;DHT22;39160;48.580;7.756;2024-01-30T16:21:00;9.90;99.90
53272;DHT22;39160;48.580;7.756;2024-01-30T16:25:50;10.00;99.90
53272;DHT22;39160;48.580;7.756;2024-01-30T16:30:41;10.00;99.90
53272;DHT22;39160;48.580;7.756;2024-01-30T16:35:32;9.90;99.90
53272;DHT22;39160;48.580;7.756;2024-01-30T16:40:22;10.00;99.90
53272;DHT22;39160;48.580;7.756;2024-01-30T16:45:13;10.00;99.90
53272;DHT22;39160;48.580;7.756;2024-01-30T16:50:04;10.00;99.90
53272;DHT22;39160;48.580;7.756;2024-01-30T16:54:55;10.00;99.90
53272;DHT22;39160;48.580;7.756;2024-01-30T16:59:45;10.10;99.90
53272;DHT22;39160;48.580;7.756;2024-01-30T17:04:40;10.00;99.90
53272;DHT22;39160;48.580;7.756;2024-01-30T17:09:30;10.00;99.90
53272;DHT22;39160;48.580;7.756;2024-01-30T17:14:22;10.10;99.90
53272;DHT22;39160;48.580;7.756;2024-01-30T17:19:13;10.10;99.90
53272;DHT22;39160;48.580;7.756;2024-01-30T17:24:05;10.10;99.90
53272;DHT22;39160;48.580;7.756;2024-01-30T17:28:57;10.10;99.90
53272;DHT22;39160;48.580;7.756;2024-01-30T17:33:48;10.10;99.90
53272;DHT22;39160;48.580;7.756;2024-01-30T17:38:39;10.10;99.90
53272;DHT22;39160;48.580;7.756;2024-01-30T17:43:29;10.10;99.90
53272;DHT22;39160;48.580;7.756;2024-01-30T17:48:20;10.10;99.90
53272;DHT22;39160;48.580;7.756;2024-01-30T17:53:10;10.20;99.90
53272;DHT22;39160;48.580;7.756;2024-01-30T17:58:01;10.20;99.90
53272;DHT22;39160;48.580;7.756;2024-01-30T18:02:53;10.20;99.90
53272;DHT22;39160;48.580;7.756;2024-01-30T18:07:46;10.20;99.90
53272;DHT22;39160;48.580;7.756;2024-01-30T18:12:36;10.20;99.90
53272;DHT22;39160;48.580;7.756;2024-01-30T18:17:27;10.30;99.90
53272;DHT22;39160;48.580;7.756;2024-01-30T18:22:18;10.20;99.90
53272;DHT22;39160;48.580;7.756;2024-01-30T18:27:08;10.30;99.90
53272;DHT22;39160;48.580;7.756;2024-01-30T18:32:02;10.30;99.90
53272;DHT22;39160;48.580;7.756;2024-01-30T18:36:53;10.30;99.90
53272;DHT22;39160;48.580;7.756;2024-01-30T18:41:48;10.30;99.90
53272;DHT22;39160;48.580;7.756;2024-01-30T18:46:38;10.30;99.90
53272;DHT22;39160;48.580;7.756;2024-01-30T18:51:29;10.30;99.90
53272;DHT22;39160;48.580;7.756;2024-01-30T18:56:20;10.20;99.90
53272;DHT22;39160;48.580;7.756;2024-01-30T19:01:11;10.30;99.90
53272;DHT22;39160;48.580;7.756;2024-01-30T19:06:02;10.20;99.90
53272;DHT22;39160;48.580;7.756;2024-01-30T19:10:52;10.20;99.90
53272;DHT22;39160;48.580;7.756;2024-01-30T19:15:44;10.20;99.90
53272;DHT22;39160;48.580;7.756;2024-01-30T19:20:34;10.20;99.90
53272;DHT22;39160;48.580;7.756;2024-01-30T19:25:25;10.20;99.90
53272;DHT22;39160;48.580;7.756;2024-01-30T19:30:17;10.20;99.90
53272;DHT22;39160;48.580;7.756;2024-01-30T19:35:08;10.20;99.90
53272;DHT22;39160;48.580;7.756;2024-01-30T19:39:59;10.20;99.90
53272;DHT22;39160;48.580;7.756;2024-01-30T19:44:50;10.20;99.90
53272;DHT22;39160;48.580;7.756;2024-01-30T19:49:40;10.10;99.90
53272;DHT22;39160;48.580;7.756;2024-01-30T19:54:31;10.10;99.90
53272;DHT22;39160;48.580;7.756;2024-01-30T19:59:23;10.10;99.90
53272;DHT22;39160;48.580;7.756;2024-01-30T20:04:14;10.10;99.90
53272;DHT22;39160;48.580;7.756;2024-01-30T20:09:05;10.10;99.90
53272;DHT22;39160;48.580;7.756;2024-01-30T20:13:57;10.00;99.90
53272;DHT22;39160;48.580;7.756;2024-01-30T20:18:47;10.10;99.90
53272;DHT22;39160;48.580;7.756;2024-01-30T20:23:38;10.10;99.90
53272;DHT22;39160;48.580;7.756;2024-01-30T20:28:29;10.10;99.90
53272;DHT22;39160;48.580;7.756;2024-01-30T20:33:19;10.10;99.90
53272;DHT22;39160;48.580;7.756;2024-01-30T20:38:10;10.10;99.90
53272;DHT22;39160;48.580;7.756;2024-01-30T20:43:01;10.10;99.90
53272;DHT22;39160;48.580;7.756;2024-01-30T20:47:51;10.10;99.90
53272;DHT22;39160;48.580;7.756;2024-01-30T20:52:42;10.10;99.90
53272;DHT22;39160;48.580;7.756;2024-01-30T20:57:33;10.00;99.90
53272;DHT22;39160;48.580;7.756;2024-01-30T21:02:23;10.00;99.90
53272;DHT22;39160;48.580;7.756;2024-01-30T21:07:14;10.00;99.90
53272;DHT22;39160;48.580;7.756;2024-01-30T21:12:05;10.10;99.90
53272;DHT22;39160;48.580;7.756;2024-01-30T21:16:59;10.10;99.90
53272;DHT22;39160;48.580;7.756;2024-01-30T21:21:50;10.10;99.90
53272;DHT22;39160;48.580;7.756;2024-01-30T21:26:41;10.10;99.90
53272;DHT22;39160;48.580;7.756;2024-01-30T21:31:32;10.00;99.90
53272;DHT22;39160;48.580;7.756;2024-01-30T21:36:23;10.10;99.90
53272;DHT22;39160;48.580;7.756;2024-01-30T21:41:15;10.00;99.90
53272;DHT22;39160;48.580;7.756;2024-01-30T21:46:06;10.00;99.90
53272;DHT22;39160;48.580;7.756;2024-01-30T21:50:58;10.10;99.90
53272;DHT22;39160;48.580;7.756;2024-01-30T21:55:49;10.10;99.90
53272;DHT22;39160;48.580;7.756;2024-01-30T22:00:39;10.10;99.90
53272;DHT22;39160;48.580;7.756;2024-01-30T22:05:30;10.10;99.90
53272;DHT22;39160;48.580;7.756;2024-01-30T22:10:21;10.10;99.90
53272;DHT22;39160;48.580;7.756;2024-01-30T22:15:12;10.10;99.90
53272;DHT22;39160;48.580;7.756;2024-01-30T22:20:03;10.10;99.90
53272;DHT22;39160;48.580;7.756;2024-01-30T22:24:54;10.10;99.90
53272;DHT22;39160;48.580;7.756;2024-01-30T22:29:45;10.10;99.90
53272;DHT22;39160;48.580;7.756;2024-01-30T22:34:36;10.10;99.90
53272;DHT22;39160;48.580;7.756;2024-01-30T22:39:28;10.10;99.90
53272;DHT22;39160;48.580;7.756;2024-01-30T22:44:18;10.10;99.90
53272;DHT22;39160;48.580;7.756;2024-01-30T22:49:09;10.10;99.90
53272;DHT22;39160;48.580;7.756;2024-01-30T22:54:00;10.10;99.90
53272;DHT22;39160;48.580;7.756;2024-01-30T22:58:50;10.10;99.90
53272;DHT22;39160;48.580;7.756;2024-01-30T23:03:41;10.10;99.90
53272;DHT22;39160;48.580;7.756;2024-01-30T23:08:32;10.10;99.90
53272;DHT22;39160;48.580;7.756;2024-01-30T23:13:23;10.20;99.90
53272;DHT22;39160;48.580;7.756;2024-01-30T23:18:13;10.20;99.90
53272;DHT22;39160;48.580;7.756;2024-01-30T23:23:06;10.20;99.90
53272;DHT22;39160;48.580;7.756;2024-01-30T23:27:58;10.20;99.90
53272;DHT22;39160;48.580;7.756;2024-01-30T23:32:49;10.10;99.90
53272;DHT22;39160;48.580;7.756;2024-01-30T23:37:39;10.20;99.90
53272;DHT22;39160;48.580;7.756;2024-01-30T23:42:30;10.20;99.90
53272;DHT22;39160;48.580;7.756;2024-01-30T23:47:21;10.20;99.90
53272;DHT22;39160;48.580;7.756;2024-01-30T23:52:11;10.20;99.90
53272;DHT22;39160;48.580;7.756;2024-01-30T23:57:02;10.20;99.90
